sensor_id;sensor_type;location;lat;lon;timestamp;pressure;altitude;pressure_sealevel;temperature;humidity
68199;BME280;55021;51.554;17.044;2023-08-21T00:07:40;101100.41;;;23.52;83.99
68199;BME280;55021;51.554;17.044;2023-08-21T00:22:42;101082.19;;;23.45;83.79
68199;BME280;55021;51.554;17.044;2023-08-21T00:37:45;101089.41;;;23.28;84.57
68199;BME280;55021;51.554;17.044;2023-08-21T00:52:48;101078.25;;;23.89;83.68
68199;BME280;55021;51.554;17.044;2023-08-21T01:07:56;101070.75;;;22.55;91.34
68199;BME280;55021;51.554;17.044;2023-08-21T01:23:02;101094.13;;;23.45;87.47
68199;BME280;55021;51.554;17.044;2023-08-21T01:38:06;101049.38;;;21.82;97.93
68199;BME280;55021;51.554;17.044;2023-08-21T01:53:09;101085.41;;;21.93;100.00
68199;BME280;55021;51.554;17.044;2023-08-21T02:08:12;101142.50;;;21.42;100.00
68199;BME280;55021;51.554;17.044;2023-08-21T02:23:15;101195.69;;;20.24;100.00
68199;BME280;55021;51.554;17.044;2023-08-21T02:38:18;101196.09;;;18.84;100.00
68199;BME280;55021;51.554;17.044;2023-08-21T02:53:21;101194.13;;;18.99;98.27
68199;BME280;55021;51.554;17.044;2023-08-21T03:08:23;101183.84;;;18.87;94.45
68199;BME280;55021;51.554;17.044;2023-08-21T03:23:25;101209.50;;;18.94;95.06
68199;BME280;55021;51.554;17.044;2023-08-21T03:38:28;101195.53;;;18.95;94.02
68199;BME280;55021;51.554;17.044;2023-08-21T03:53:30;101197.94;;;19.26;93.10
68199;BME280;55021;51.554;17.044;2023-08-21T04:08:32;101205.91;;;19.21;95.59
68199;BME280;55021;51.554;17.044;2023-08-21T04:23:34;101225.06;;;19.36;91.74
68199;BME280;55021;51.554;17.044;2023-08-21T04:38:37;101202.19;;;18.80;97.96
68199;BME280;55021;51.554;17.044;2023-08-21T04:53:39;101184.84;;;18.79;95.64
68199;BME280;55021;51.554;17.044;2023-08-21T05:08:41;101238.44;;;20.14;93.57
68199;BME280;55021;51.554;17.044;2023-08-21T05:23:43;101213.25;;;20.23;88.74
68199;BME280;55021;51.554;17.044;2023-08-21T05:38:46;101221.69;;;20.89;87.50
68199;BME280;55021;51.554;17.044;2023-08-21T05:53:48;101169.47;;;21.27;82.08
68199;BME280;55021;51.554;17.044;2023-08-21T06:08:50;101227.47;;;22.04;81.87
68199;BME280;55021;51.554;17.044;2023-08-21T06:23:55;101232.47;;;21.76;82.89
68199;BME280;55021;51.554;17.044;2023-08-21T06:38:57;101241.69;;;22.01;79.71
68199;BME280;55021;51.554;17.044;2023-08-21T06:54:03;101205.75;;;22.14;78.29
68199;BME280;55021;51.554;17.044;2023-08-21T07:09:08;101225.06;;;22.58;72.58
68199;BME280;55021;51.554;17.044;2023-08-21T07:24:11;101216.50;;;22.67;75.29
68199;BME280;55021;51.554;17.044;2023-08-21T07:39:13;101265.97;;;22.37;76.17
68199;BME280;55021;51.554;17.044;2023-08-21T07:54:19;101252.53;;;23.41;71.69
68199;BME280;55021;51.554;17.044;2023-08-21T08:09:28;101264.44;;;24.39;66.57
68199;BME280;55021;51.554;17.044;2023-08-21T08:24:30;101261.66;;;25.16;66.72
68199;BME280;55021;51.554;17.044;2023-08-21T08:39:33;101257.09;;;25.91;63.03
68199;BME280;55021;51.554;17.044;2023-08-21T08:54:36;101255.31;;;26.48;58.05
68199;BME280;55021;51.554;17.044;2023-08-21T09:09:39;101254.59;;;26.70;57.81
68199;BME280;55021;51.554;17.044;2023-08-21T09:24:59;101263.38;;;26.78;55.72
68199;BME280;55021;51.554;17.044;2023-08-21T09:40:02;101248.53;;;27.17;55.26
68199;BME280;55021;51.554;17.044;2023-08-21T09:55:06;101218.41;;;29.05;51.03
68199;BME280;55021;51.554;17.044;2023-08-21T10:10:09;101177.59;;;27.42;51.74
68199;BME280;55021;51.554;17.044;2023-08-21T10:25:16;101224.72;;;29.22;48.57
68199;BME280;55021;51.554;17.044;2023-08-21T10:40:23;101204.06;;;28.91;46.16
68199;BME280;55021;51.554;17.044;2023-08-21T10:55:25;101202.38;;;29.64;50.79
68199;BME280;55021;51.554;17.044;2023-08-21T11:10:30;101197.56;;;28.59;51.90
68199;BME280;55021;51.554;17.044;2023-08-21T11:25:33;101182.88;;;29.32;51.35
68199;BME280;55021;51.554;17.044;2023-08-21T11:40:36;101168.56;;;30.17;47.52
68199;BME280;55021;51.554;17.044;2023-08-21T11:55:38;101163.44;;;29.94;46.94
68199;BME280;55021;51.554;17.044;2023-08-21T12:10:41;101161.81;;;30.03;48.57
68199;BME280;55021;51.554;17.044;2023-08-21T12:25:43;101156.00;;;29.26;51.00
68199;BME280;55021;51.554;17.044;2023-08-21T12:40:45;101162.53;;;30.60;49.24
68199;BME280;55021;51.554;17.044;2023-08-21T12:55:48;101161.56;;;29.21;50.42
68199;BME280;55021;51.554;17.044;2023-08-21T13:10:51;101152.56;;;28.23;53.90
68199;BME280;55021;51.554;17.044;2023-08-21T13:25:54;101096.66;;;29.04;49.59
68199;BME280;55021;51.554;17.044;2023-08-21T13:40:56;101109.25;;;29.11;48.30
68199;BME280;55021;51.554;17.044;2023-08-21T13:55:59;101098.19;;;29.26;48.30
68199;BME280;55021;51.554;17.044;2023-08-21T14:11:01;101095.59;;;29.51;44.26
68199;BME280;55021;51.554;17.044;2023-08-21T14:26:04;101095.59;;;29.57;48.78
68199;BME280;55021;51.554;17.044;2023-08-21T14:41:06;101074.69;;;29.74;47.46
68199;BME280;55021;51.554;17.044;2023-08-21T14:56:08;101053.94;;;29.55;48.67
68199;BME280;55021;51.554;17.044;2023-08-21T15:11:10;101084.06;;;30.15;49.36
68199;BME280;55021;51.554;17.044;2023-08-21T15:26:16;101037.50;;;28.70;53.55
68199;BME280;55021;51.554;17.044;2023-08-21T15:41:18;101077.47;;;28.49;50.27
68199;BME280;55021;51.554;17.044;2023-08-21T15:56:21;101068.66;;;27.76;49.15
68199;BME280;55021;51.554;17.044;2023-08-21T16:11:23;101076.91;;;28.47;52.82
68199;BME280;55021;51.554;17.044;2023-08-21T16:26:26;101059.41;;;28.24;50.36
68199;BME280;55021;51.554;17.044;2023-08-21T16:41:28;101068.31;;;27.73;51.54
68199;BME280;55021;51.554;17.044;2023-08-21T16:56:31;101072.81;;;26.81;55.87
68199;BME280;55021;51.554;17.044;2023-08-21T17:11:34;101085.53;;;26.77;56.97
68199;BME280;55021;51.554;17.044;2023-08-21T17:26:37;101007.06;;;26.25;58.48
